Time;durP1;ratioP1;P1;durP2;ratioP2;P2;SDS_P1;SDS_P2;PMS_P1;PMS_P2;Temp;Humidity;BMP_temperature;BMP_pressure;BME280_temperature;BME280_humidity;BME280_pressure;Samples;Min_cycle;Max_cycle;Signal;HPM_P1;HPM_P2
2022/09/23 04:30:54;;;;;;;;;19.33;18.67;;;;;;;;5786174;22;46569;-54
2022/09/23 04:33:20;;;;;;;;;24.67;22.00;;;;;;;;5039917;28;45461;-52
2022/09/23 04:35:48;;;;;;;;;25.00;22.67;;;;;;;;5041059;28;45972;-53
2022/09/23 04:38:13;;;;;;;;;25.00;22.67;;;;;;;;5042525;28;45280;-54
2022/09/23 04:40:38;;;;;;;;;20.00;19.00;;;;;;;;5040896;28;45526;-54
2022/09/23 04:43:03;;;;;;;;;24.67;20.67;;;;;;;;5052870;28;45381;-51
2022/09/23 04:45:29;;;;;;;;;29.33;24.33;;;;;;;;5053473;28;45465;-53
2022/09/23 04:47:56;;;;;;;;;29.33;23.33;;;;;;;;5038016;28;45548;-53
2022/09/23 04:50:22;;;;;;;;;27.00;25.00;;;;;;;;5024142;28;45499;-54
2022/09/23 04:52:47;;;;;;;;;27.67;24.00;;;;;;;;5045481;28;45424;-55
2022/09/23 04:55:12;;;;;;;;;23.67;19.67;;;;;;;;5040606;28;46322;-52
2022/09/23 04:57:37;;;;;;;;;25.33;23.67;;;;;;;;5040788;28;45441;-49
2022/09/23 05:00:02;;;;;;;;;25.00;22.67;;;;;;;;5040764;28;45692;-51
2022/09/23 05:02:28;;;;;;;;;22.67;21.00;;;;;;;;5053579;28;45464;-54
2022/09/23 05:04:54;;;;;;;;;26.00;22.00;;;;;;;;5038825;28;46282;-53
2022/09/23 05:07:19;;;;;;;;;22.67;19.67;;;;;;;;5041221;28;45315;-50
2022/09/23 05:09:44;;;;;;;;;27.33;22.67;;;;;;;;5022896;28;45368;-54
2022/09/23 05:12:10;;;;;;;;;21.00;18.33;;;;;;;;5040944;28;45480;-53
2022/09/23 05:14:37;;;;;;;;;24.33;22.33;;;;;;;;5041021;28;46272;-53
2022/09/23 05:17:02;;;;;;;;;25.00;22.00;;;;;;;;5046614;28;45339;-54
2022/09/23 05:19:28;;;;;;;;;22.33;20.67;;;;;;;;5047340;28;45433;-49
2022/09/23 05:21:53;;;;;;;;;23.33;21.33;;;;;;;;5042772;28;45442;-53
2022/09/23 05:24:18;;;;;;;;;20.00;19.33;;;;;;;;5050968;28;46056;-51
2022/09/23 05:26:43;;;;;;;;;23.33;21.33;;;;;;;;5041509;28;45432;-53
2022/09/23 05:29:09;;;;;;;;;27.67;24.67;;;;;;;;5048988;28;45300;-51
2022/09/23 05:31:34;;;;;;;;;27.67;23.33;;;;;;;;5048102;28;45204;-50
2022/09/23 05:34:01;;;;;;;;;27.67;22.67;;;;;;;;5042645;28;46963;-52
2022/09/23 05:36:27;;;;;;;;;21.33;19.33;;;;;;;;5047254;28;45549;-54
2022/09/23 05:38:53;;;;;;;;;24.00;21.00;;;;;;;;5045568;28;45915;-54
2022/09/23 05:41:21;;;;;;;;;20.67;20.67;;;;;;;;5051548;28;45566;-54
2022/09/23 05:43:46;;;;;;;;;21.67;17.00;;;;;;;;5041535;28;47092;-52
2022/09/23 05:46:13;;;;;;;;;22.67;20.33;;;;;;;;5038590;28;45266;-52
2022/09/23 05:48:39;;;;;;;;;15.00;13.67;;;;;;;;5038669;28;45351;-52
2022/09/23 05:51:07;;;;;;;;;22.00;18.00;;;;;;;;5036813;28;45378;-51
2022/09/23 05:53:33;;;;;;;;;23.33;21.67;;;;;;;;5034571;28;46147;-52
2022/09/23 05:55:58;;;;;;;;;17.33;17.00;;;;;;;;5039144;28;45452;-53
2022/09/23 05:58:24;;;;;;;;;18.33;17.00;;;;;;;;5038585;28;45601;-53
2022/09/23 06:00:49;;;;;;;;;26.67;19.67;;;;;;;;5019351;28;45614;-51
2022/09/23 06:03:15;;;;;;;;;22.67;17.00;;;;;;;;5038816;28;46144;-55
2022/09/23 06:05:41;;;;;;;;;20.67;20.67;;;;;;;;5037925;28;45276;-55
2022/09/23 06:08:07;;;;;;;;;17.67;17.67;;;;;;;;5043592;28;45568;-51
2022/09/23 06:10:42;;;;;;;;;21.33;19.00;;;;;;;;5039249;28;45761;-54
2022/09/23 06:13:07;;;;;;;;;20.00;17.33;;;;;;;;5021792;28;47567;-56
2022/09/23 06:15:33;;;;;;;;;16.00;16.00;;;;;;;;5037902;28;45445;-56
2022/09/23 06:17:58;;;;;;;;;18.33;18.00;;;;;;;;5033363;28;45422;-54
2022/09/23 06:20:24;;;;;;;;;20.00;18.00;;;;;;;;5036014;28;45505;-54
2022/09/23 06:22:49;;;;;;;;;21.00;20.00;;;;;;;;5035534;28;46012;-56
2022/09/23 06:25:14;;;;;;;;;21.00;18.67;;;;;;;;5042407;28;45461;-59
2022/09/23 06:27:40;;;;;;;;;25.00;21.33;;;;;;;;5046076;28;45515;-59
2022/09/23 06:30:05;;;;;;;;;24.00;19.00;;;;;;;;5038585;28;45441;-59
2022/09/23 06:32:30;;;;;;;;;24.67;20.67;;;;;;;;5037286;28;45822;-59
2022/09/23 06:34:56;;;;;;;;;23.67;21.00;;;;;;;;5035878;28;45393;-59
2022/09/23 06:37:22;;;;;;;;;18.67;18.67;;;;;;;;5042467;28;45556;-59
2022/09/23 06:39:48;;;;;;;;;19.33;18.33;;;;;;;;5038553;28;45628;-58
2022/09/23 06:42:14;;;;;;;;;22.00;18.67;;;;;;;;5034136;28;45430;-59
2022/09/23 06:44:39;;;;;;;;;26.33;21.67;;;;;;;;5037024;28;45366;-59
2022/09/23 06:47:05;;;;;;;;;27.67;23.67;;;;;;;;5036698;28;45504;-59
2022/09/23 06:49:30;;;;;;;;;23.67;23.67;;;;;;;;5038839;28;45268;-59
2022/09/23 06:51:55;;;;;;;;;25.33;20.00;;;;;;;;5020194;28;47389;-58
2022/09/23 06:54:20;;;;;;;;;22.33;20.00;;;;;;;;5035328;28;45500;-58
2022/09/23 06:56:46;;;;;;;;;23.33;19.33;;;;;;;;5033084;28;45698;-59
2022/09/23 06:59:11;;;;;;;;;22.67;17.67;;;;;;;;5030054;28;45521;-59
2022/09/23 07:01:37;;;;;;;;;24.00;24.00;;;;;;;;5033632;28;45999;-59
2022/09/23 07:04:02;;;;;;;;;30.00;25.33;;;;;;;;5034745;28;45418;-59
2022/09/23 07:06:27;;;;;;;;;31.67;21.33;;;;;;;;5037852;28;45615;-59
2022/09/23 07:08:52;;;;;;;;;28.33;26.67;;;;;;;;5044414;28;45469;-59
2022/09/23 07:11:21;;;;;;;;;30.33;24.33;;;;;;;;5032267;28;46200;-59
2022/09/23 07:13:46;;;;;;;;;29.00;26.33;;;;;;;;5034874;28;45600;-59
2022/09/23 07:16:11;;;;;;;;;27.67;22.33;;;;;;;;5036868;28;46018;-59
2022/09/23 07:18:37;;;;;;;;;24.00;20.67;;;;;;;;5026697;28;45850;-59
2022/09/23 07:21:13;;;;;;;;;27.00;23.67;;;;;;;;5034490;28;46087;-59
2022/09/23 07:23:39;;;;;;;;;28.00;26.00;;;;;;;;5034494;28;45520;-59
2022/09/23 07:26:04;;;;;;;;;26.67;20.33;;;;;;;;5034434;28;45355;-60
2022/09/23 07:28:29;;;;;;;;;21.33;21.33;;;;;;;;5043236;28;45490;-59
2022/09/23 07:30:55;;;;;;;;;33.33;24.00;;;;;;;;5030154;28;45498;-59
2022/09/23 07:33:20;;;;;;;;;25.00;23.00;;;;;;;;5036780;28;45433;-60
2022/09/23 07:35:45;;;;;;;;;28.67;24.67;;;;;;;;5037867;28;45430;-59
2022/09/23 07:38:11;;;;;;;;;30.33;24.00;;;;;;;;5038953;28;45696;-59
2022/09/23 07:40:38;;;;;;;;;39.33;28.67;;;;;;;;5036771;28;46111;-59
2022/09/23 07:43:04;;;;;;;;;31.67;26.67;;;;;;;;5036633;28;45328;-59
2022/09/23 07:45:32;;;;;;;;;32.00;26.67;;;;;;;;5038920;28;45489;-59
2022/09/23 07:47:58;;;;;;;;;29.67;26.33;;;;;;;;5036520;28;45555;-59
2022/09/23 07:50:23;;;;;;;;;29.67;25.33;;;;;;;;5036009;28;46882;-60
2022/09/23 07:52:51;;;;;;;;;26.67;24.00;;;;;;;;5043779;28;45440;-60
2022/09/23 07:55:17;;;;;;;;;23.67;22.00;;;;;;;;5039065;28;45360;-59
2022/09/23 07:57:44;;;;;;;;;24.67;24.67;;;;;;;;5034999;28;45378;-59
2022/09/23 08:00:09;;;;;;;;;26.00;22.67;;;;;;;;5033703;28;45563;-60
2022/09/23 08:02:35;;;;;;;;;26.33;22.67;;;;;;;;5033576;28;45775;-58
2022/09/23 08:05:00;;;;;;;;;25.00;24.67;;;;;;;;5035501;28;45468;-59
2022/09/23 08:07:25;;;;;;;;;21.33;19.67;;;;;;;;5033939;28;45792;-59
2022/09/23 08:09:50;;;;;;;;;25.33;21.67;;;;;;;;5035621;28;45395;-59
2022/09/23 08:12:16;;;;;;;;;29.67;25.00;;;;;;;;5039397;28;45215;-59
2022/09/23 08:14:42;;;;;;;;;30.67;26.67;;;;;;;;5039281;28;45590;-59
2022/09/23 08:17:10;;;;;;;;;27.00;25.00;;;;;;;;5039089;28;45484;-60
2022/09/23 08:19:36;;;;;;;;;29.00;23.33;;;;;;;;5038976;28;46238;-60
2022/09/23 08:22:01;;;;;;;;;15.33;14.00;;;;;;;;5039869;28;45396;-59
2022/09/23 08:24:26;;;;;;;;;23.00;17.67;;;;;;;;5040505;28;45319;-59
2022/09/23 08:26:53;;;;;;;;;21.00;21.00;;;;;;;;5039542;28;45270;-59
2022/09/23 08:29:19;;;;;;;;;25.67;23.33;;;;;;;;5038731;28;45627;-59
2022/09/23 08:31:45;;;;;;;;;30.33;25.33;;;;;;;;5036411;28;45274;-59
2022/09/23 08:34:10;;;;;;;;;30.67;27.67;;;;;;;;5037727;28;45492;-59
2022/09/23 08:36:35;;;;;;;;;24.00;17.67;;;;;;;;5038654;28;45258;-59
2022/09/23 08:39:01;;;;;;;;;27.00;23.67;;;;;;;;5038578;28;45482;-59
2022/09/23 08:41:30;;;;;;;;;26.33;24.67;;;;;;;;5024730;28;45875;-59
2022/09/23 08:44:03;;;;;;;;;30.33;25.67;;;;;;;;5039434;28;45579;-58
2022/09/23 08:46:36;;;;;;;;;29.00;21.67;;;;;;;;5038092;28;45521;-60
2022/09/23 08:49:03;;;;;;;;;24.67;22.33;;;;;;;;5031586;28;46317;-59
2022/09/23 08:51:32;;;;;;;;;28.33;21.33;;;;;;;;5037254;28;46848;-59
2022/09/23 08:53:58;;;;;;;;;22.00;18.67;;;;;;;;5021387;28;45804;-59
2022/09/23 08:56:23;;;;;;;;;25.67;22.67;;;;;;;;5035654;28;45500;-59
2022/09/23 08:58:48;;;;;;;;;27.33;23.33;;;;;;;;5038486;28;46362;-59
2022/09/23 09:01:13;;;;;;;;;30.00;25.00;;;;;;;;5038894;28;45498;-60
2022/09/23 09:03:45;;;;;;;;;23.00;17.67;;;;;;;;5039629;28;45994;-58
2022/09/23 09:06:20;;;;;;;;;29.33;27.33;;;;;;;;5036688;28;45505;-59
2022/09/23 09:08:50;;;;;;;;;20.33;18.33;;;;;;;;5038721;28;46427;-59
2022/09/23 09:11:16;;;;;;;;;27.00;21.00;;;;;;;;5039005;28;45287;-59
2022/09/23 09:13:52;;;;;;;;;23.00;23.00;;;;;;;;5038284;28;45449;-59
2022/09/23 09:16:23;;;;;;;;;24.00;22.00;;;;;;;;5038222;28;45355;-59
2022/09/23 09:18:52;;;;;;;;;21.67;21.67;;;;;;;;5038634;28;47166;-59
2022/09/23 09:21:23;;;;;;;;;29.00;24.33;;;;;;;;5028407;28;45391;-60
2022/09/23 09:23:49;;;;;;;;;20.33;20.00;;;;;;;;5037510;28;45398;-59
2022/09/23 09:26:25;;;;;;;;;20.00;18.50;;;;;;;;5035028;28;45494;-60
2022/09/23 09:28:58;;;;;;;;;17.33;14.33;;;;;;;;5035447;28;45604;-60
2022/09/23 09:31:30;;;;;;;;;14.33;12.67;;;;;;;;5018705;28;45592;-58
2022/09/23 09:34:01;;;;;;;;;13.67;10.67;;;;;;;;5035988;28;45348;-60
2022/09/23 09:36:43;;;;;;;;;14.67;11.00;;;;;;;;5039300;28;45580;-59
2022/09/23 09:39:12;;;;;;;;;10.00;10.00;;;;;;;;5037780;28;46211;-59
2022/09/23 09:41:40;;;;;;;;;9.67;9.67;;;;;;;;5030123;28;45501;-59
2022/09/23 09:44:08;;;;;;;;;13.00;13.00;;;;;;;;5037361;28;46695;-60
2022/09/23 09:46:46;;;;;;;;;14.00;13.00;;;;;;;;5035862;28;45606;-60
2022/09/23 09:49:29;;;;;;;;;19.00;14.67;;;;;;;;5032975;28;46573;-59
2022/09/23 09:52:11;;;;;;;;;11.67;10.00;;;;;;;;5034924;28;45494;-59
2022/09/23 09:54:37;;;;;;;;;12.67;12.67;;;;;;;;5035225;28;45533;-59
2022/09/23 09:57:03;;;;;;;;;17.33;13.00;;;;;;;;5037439;28;45447;-59
2022/09/23 09:59:29;;;;;;;;;8.67;8.67;;;;;;;;5029089;28;46198;-60
2022/09/23 10:02:13;;;;;;;;;11.33;9.67;;;;;;;;5030091;28;45453;-60
2022/09/23 10:04:38;;;;;;;;;12.33;10.00;;;;;;;;5028472;28;45371;-59
2022/09/23 10:07:04;;;;;;;;;16.67;14.67;;;;;;;;5037954;28;45336;-60
2022/09/23 10:09:32;;;;;;;;;13.00;13.00;;;;;;;;5038822;28;46206;-59
2022/09/23 10:12:02;;;;;;;;;14.00;13.00;;;;;;;;5033925;28;45501;-59
2022/09/23 10:14:29;;;;;;;;;15.67;11.00;;;;;;;;5020981;28;45382;-58
2022/09/23 10:17:04;;;;;;;;;14.00;13.00;;;;;;;;5037078;28;46861;-59
2022/09/23 10:19:29;;;;;;;;;14.00;7.67;;;;;;;;5035688;28;46162;-58
2022/09/23 10:21:58;;;;;;;;;10.67;10.00;;;;;;;;5037202;28;45485;-59
2022/09/23 10:24:25;;;;;;;;;12.33;12.33;;;;;;;;5036856;28;45366;-59
2022/09/23 10:26:56;;;;;;;;;14.00;12.67;;;;;;;;5036286;28;45371;-58
2022/09/23 10:29:24;;;;;;;;;12.67;11.67;;;;;;;;5042660;28;47142;-58
2022/09/23 10:32:12;;;;;;;;;13.00;13.00;;;;;;;;5032156;28;45959;-58
2022/09/23 10:34:41;;;;;;;;;8.00;8.00;;;;;;;;5033498;28;45540;-59
2022/09/23 10:37:19;;;;;;;;;2.00;2.00;;;;;;;;5035067;28;45434;-59
2022/09/23 10:48:08;;;;;;;;;11.33;9.67;;;;;;;;5033025;28;45635;-59
2022/09/23 10:50:37;;;;;;;;;10.67;9.00;;;;;;;;5034728;28;45310;-59
2022/09/23 10:53:17;;;;;;;;;13.00;9.00;;;;;;;;5038041;28;45643;-60
2022/09/23 10:56:11;;;;;;;;;11.33;9.33;;;;;;;;5033921;28;45528;-58
2022/09/23 10:58:36;;;;;;;;;9.33;9.33;;;;;;;;5017926;28;45719;-58
2022/09/23 11:01:20;;;;;;;;;7.00;7.00;;;;;;;;5038834;28;46273;-61
2022/09/23 11:04:05;;;;;;;;;10.67;10.00;;;;;;;;5044615;28;45465;-59
2022/09/23 11:06:30;;;;;;;;;11.33;8.00;;;;;;;;5034664;28;45727;-58
2022/09/23 11:08:58;;;;;;;;;6.00;6.00;;;;;;;;5032273;28;45274;-60
2022/09/23 11:11:42;;;;;;;;;7.33;7.33;;;;;;;;5035089;28;45591;-59
2022/09/23 11:14:08;;;;;;;;;10.33;8.00;;;;;;;;5035075;28;45717;-60
2022/09/23 11:16:37;;;;;;;;;7.50;6.00;;;;;;;;5034667;28;45589;-57
2022/09/23 11:19:09;;;;;;;;;9.33;9.33;;;;;;;;5033790;28;45371;-58
2022/09/23 11:21:55;;;;;;;;;7.67;6.00;;;;;;;;5036148;28;45544;-58
2022/09/23 11:24:26;;;;;;;;;11.00;9.00;;;;;;;;5036291;28;45662;-58
2022/09/23 11:26:54;;;;;;;;;6.67;6.00;;;;;;;;5036475;28;45456;-59
2022/09/23 11:29:25;;;;;;;;;8.00;6.67;;;;;;;;5037021;28;45593;-59
2022/09/23 11:32:13;;;;;;;;;10.33;7.33;;;;;;;;5038233;28;46368;-58
2022/09/23 11:34:38;;;;;;;;;7.00;6.67;;;;;;;;5034393;28;45572;-58
2022/09/23 11:37:06;;;;;;;;;9.00;9.00;;;;;;;;5028752;28;45286;-58
2022/09/23 11:39:52;;;;;;;;;7.33;7.33;;;;;;;;5038726;28;46118;-58
2022/09/23 11:42:25;;;;;;;;;7.33;7.00;;;;;;;;5033691;28;46989;-59
2022/09/23 11:44:55;;;;;;;;;8.00;7.67;;;;;;;;5037678;28;45640;-59
2022/09/23 11:47:26;;;;;;;;;7.00;7.00;;;;;;;;5018337;28;45560;-59
2022/09/23 11:49:55;;;;;;;;;7.00;7.00;;;;;;;;5039632;28;45605;-59
2022/09/23 11:52:20;;;;;;;;;9.00;7.33;;;;;;;;5041735;28;45800;-60
2022/09/23 11:54:51;;;;;;;;;9.25;8.50;;;;;;;;5048746;28;45792;-59
2022/09/23 11:57:22;;;;;;;;;6.67;6.67;;;;;;;;5034074;28;45783;-59
2022/09/23 11:59:50;;;;;;;;;10.00;7.67;;;;;;;;5038931;28;45445;-60
2022/09/23 12:02:19;;;;;;;;;8.00;7.67;;;;;;;;5041670;28;46352;-60
2022/09/23 12:04:47;;;;;;;;;6.67;6.00;;;;;;;;5039764;28;45402;-60
2022/09/23 12:07:18;;;;;;;;;9.00;8.67;;;;;;;;5043370;28;45556;-59
2022/09/23 12:09:52;;;;;;;;;5.00;5.00;;;;;;;;5036202;28;45493;-59
2022/09/23 12:12:23;;;;;;;;;5.33;5.33;;;;;;;;5042216;28;46064;-60
2022/09/23 12:14:58;;;;;;;;;7.67;6.67;;;;;;;;5038245;28;45405;-59
2022/09/23 12:17:32;;;;;;;;;6.67;6.67;;;;;;;;5039056;28;45423;-59
2022/09/23 12:19:57;;;;;;;;;7.00;4.33;;;;;;;;5040083;28;45461;-60
2022/09/23 12:22:35;;;;;;;;;7.67;5.00;;;;;;;;5035323;28;46596;-59
2022/09/23 12:25:06;;;;;;;;;8.33;7.00;;;;;;;;5031025;28;45831;-59
2022/09/23 12:27:36;;;;;;;;;9.67;8.33;;;;;;;;5037637;28;45586;-60
2022/09/23 12:30:03;;;;;;;;;8.33;8.33;;;;;;;;5037807;28;45778;-59
2022/09/23 12:32:29;;;;;;;;;8.00;7.67;;;;;;;;5038112;28;46328;-59
2022/09/23 12:34:54;;;;;;;;;9.67;8.00;;;;;;;;5040676;28;45382;-59
2022/09/23 12:37:36;;;;;;;;;11.33;8.67;;;;;;;;5037195;28;45545;-59
2022/09/23 12:40:17;;;;;;;;;10.00;8.00;;;;;;;;5035309;28;46607;-60
2022/09/23 12:42:44;;;;;;;;;7.33;7.33;;;;;;;;5036497;28;45499;-59
2022/09/23 12:45:30;;;;;;;;;7.00;7.00;;;;;;;;5040410;28;45474;-60
2022/09/23 12:47:56;;;;;;;;;8.00;6.00;;;;;;;;5037688;28;45398;-59
2022/09/23 12:50:40;;;;;;;;;9.00;7.00;;;;;;;;5035255;28;45536;-59
2022/09/23 12:53:24;;;;;;;;;6.33;6.33;;;;;;;;5032539;28;46054;-59
2022/09/23 12:55:52;;;;;;;;;8.00;7.00;;;;;;;;5037246;28;45476;-60
2022/09/23 12:58:36;;;;;;;;;6.67;6.67;;;;;;;;5038891;28;45425;-59
2022/09/23 13:01:05;;;;;;;;;9.67;7.00;;;;;;;;5037901;28;45414;-60
2022/09/23 13:08:59;;;;;;;;;9.00;6.00;;;;;;;;5038944;28;45514;-59
2022/09/23 13:11:27;;;;;;;;;6.00;6.00;;;;;;;;5043186;28;45303;-59
2022/09/23 13:13:54;;;;;;;;;7.00;6.00;;;;;;;;5044445;28;46770;-59
2022/09/23 13:16:21;;;;;;;;;6.67;5.00;;;;;;;;5048557;28;45404;-59
2022/09/23 13:18:48;;;;;;;;;6.33;6.33;;;;;;;;5036272;28;45475;-61
2022/09/23 13:21:16;;;;;;;;;7.33;7.33;;;;;;;;5038808;28;45942;-60
2022/09/23 13:24:01;;;;;;;;;10.67;10.33;;;;;;;;5037434;28;45506;-61
2022/09/23 13:26:30;;;;;;;;;7.67;7.67;;;;;;;;5038667;28;46885;-60
2022/09/23 13:28:57;;;;;;;;;12.00;12.00;;;;;;;;5037387;28;45385;-60
2022/09/23 13:31:22;;;;;;;;;10.33;8.67;;;;;;;;5038245;28;45247;-60
2022/09/23 13:33:51;;;;;;;;;11.33;9.33;;;;;;;;5037113;28;46121;-60
2022/09/23 13:36:17;;;;;;;;;9.00;8.67;;;;;;;;5037048;28;45366;-61
2022/09/23 13:38:45;;;;;;;;;15.33;10.00;;;;;;;;5037448;28;45475;-60
2022/09/23 13:41:21;;;;;;;;;9.67;8.33;;;;;;;;5037851;28;45732;-60
2022/09/23 13:43:46;;;;;;;;;13.67;11.67;;;;;;;;5037715;28;47119;-60
2022/09/23 13:46:15;;;;;;;;;9.67;9.00;;;;;;;;5036624;28;45514;-60
2022/09/23 13:48:43;;;;;;;;;8.33;6.33;;;;;;;;5036953;28;45402;-59
2022/09/23 13:51:09;;;;;;;;;9.67;8.33;;;;;;;;5037987;28;45516;-59
2022/09/23 13:53:35;;;;;;;;;8.33;8.33;;;;;;;;5038691;28;45449;-60
2022/09/23 13:56:02;;;;;;;;;8.33;8.33;;;;;;;;5037035;28;45517;-60
2022/09/23 13:58:28;;;;;;;;;9.00;7.00;;;;;;;;5037197;28;45438;-60
2022/09/23 14:00:54;;;;;;;;;9.67;7.67;;;;;;;;5014610;28;45550;-60
2022/09/23 14:03:34;;;;;;;;;9.00;7.67;;;;;;;;5038087;28;46972;-60
2022/09/23 14:06:01;;;;;;;;;9.33;7.33;;;;;;;;5036718;28;45437;-60
2022/09/23 14:08:27;;;;;;;;;7.00;7.00;;;;;;;;5033234;28;45761;-61
2022/09/23 14:10:54;;;;;;;;;9.00;9.00;;;;;;;;5036612;28;45296;-60
2022/09/23 14:13:22;;;;;;;;;10.33;8.00;;;;;;;;5037814;28;46162;-60
2022/09/23 14:15:48;;;;;;;;;9.33;7.67;;;;;;;;5036945;28;45512;-60
2022/09/23 14:18:33;;;;;;;;;10.00;10.00;;;;;;;;5035619;28;45439;-59
2022/09/23 14:20:59;;;;;;;;;10.33;9.00;;;;;;;;5036107;28;45540;-60
2022/09/23 14:23:24;;;;;;;;;10.33;7.00;;;;;;;;5037669;28;46102;-59
2022/09/23 14:25:50;;;;;;;;;11.67;8.33;;;;;;;;5036454;28;45483;-59
2022/09/23 14:28:17;;;;;;;;;9.33;9.33;;;;;;;;5036153;28;45498;-58
2022/09/23 14:30:45;;;;;;;;;8.33;6.67;;;;;;;;5036445;28;45357;-59
2022/09/23 14:33:20;;;;;;;;;7.33;7.00;;;;;;;;5019420;28;47517;-59
2022/09/23 14:35:47;;;;;;;;;7.33;7.33;;;;;;;;5036780;28;45732;-59
2022/09/23 14:41:15;;;;;;;;;8.33;6.67;;;;;;;;5035320;28;45296;-58
2022/09/23 14:43:48;;;;;;;;;11.33;10.00;;;;;;;;5036423;28;46165;-59
2022/09/23 14:46:18;;;;;;;;;7.33;7.00;;;;;;;;5034515;28;45142;-59
2022/09/23 14:48:50;;;;;;;;;6.67;6.67;;;;;;;;5038012;28;45706;-58
2022/09/23 14:51:15;;;;;;;;;9.00;7.33;;;;;;;;5036844;28;45220;-58
2022/09/23 14:53:41;;;;;;;;;8.00;7.00;;;;;;;;5036519;28;46305;-59
2022/09/23 14:56:06;;;;;;;;;13.33;9.00;;;;;;;;5036392;28;45332;-59
2022/09/23 14:58:44;;;;;;;;;8.00;8.00;;;;;;;;5037816;28;46053;-59
2022/09/23 15:01:41;;;;;;;;;6.67;6.67;;;;;;;;5036780;28;45378;-59
2022/09/23 15:04:09;;;;;;;;;15.00;14.33;;;;;;;;4992438;28;45997;-58
2022/09/23 15:06:39;;;;;;;;;10.00;10.00;;;;;;;;5038577;28;45445;-57
2022/09/23 15:09:06;;;;;;;;;12.00;11.00;;;;;;;;5034904;28;45537;-59
2022/09/23 15:11:32;;;;;;;;;16.67;12.67;;;;;;;;5037639;28;45347;-59
2022/09/23 15:13:59;;;;;;;;;11.67;10.33;;;;;;;;5037101;28;46240;-60
2022/09/23 15:16:25;;;;;;;;;10.67;8.33;;;;;;;;5035601;28;45526;-59
2022/09/23 15:18:56;;;;;;;;;11.00;11.00;;;;;;;;5035288;28;45461;-59
2022/09/23 15:21:23;;;;;;;;;17.00;14.33;;;;;;;;5034889;28;45465;-57
2022/09/23 15:23:50;;;;;;;;;14.67;9.00;;;;;;;;5034529;28;47040;-57
2022/09/23 15:26:17;;;;;;;;;13.67;12.33;;;;;;;;5035393;28;45578;-57
2022/09/23 15:28:42;;;;;;;;;14.33;12.67;;;;;;;;5035772;28;45280;-58
2022/09/23 15:31:11;;;;;;;;;14.33;11.33;;;;;;;;5037327;28;45469;-57
2022/09/23 15:33:36;;;;;;;;;15.00;13.00;;;;;;;;5035884;28;45920;-59
2022/09/23 15:36:02;;;;;;;;;13.00;12.00;;;;;;;;5037218;28;45410;-56
2022/09/23 15:38:27;;;;;;;;;15.00;14.00;;;;;;;;5035919;28;45612;-54
2022/09/23 15:40:55;;;;;;;;;14.33;12.33;;;;;;;;5035916;28;45426;-59
2022/09/23 15:43:25;;;;;;;;;12.33;12.33;;;;;;;;5033620;28;45594;-59
2022/09/23 15:45:52;;;;;;;;;12.33;11.33;;;;;;;;5034826;28;45436;-59
2022/09/23 15:48:21;;;;;;;;;17.33;15.67;;;;;;;;5036823;28;45434;-59
2022/09/23 15:50:47;;;;;;;;;16.00;13.33;;;;;;;;5032807;28;45478;-59
2022/09/23 15:53:20;;;;;;;;;13.33;11.67;;;;;;;;5036408;28;46968;-58
2022/09/23 15:55:45;;;;;;;;;17.33;14.00;;;;;;;;5035405;28;45573;-59
2022/09/23 15:58:11;;;;;;;;;16.67;14.00;;;;;;;;5019057;28;45633;-58
2022/09/23 16:00:36;;;;;;;;;10.00;8.67;;;;;;;;5036780;28;45464;-59
2022/09/23 16:03:05;;;;;;;;;18.00;16.67;;;;;;;;5043345;28;46332;-59
2022/09/23 16:05:35;;;;;;;;;14.33;13.33;;;;;;;;5046739;28;45401;-59
2022/09/23 16:08:01;;;;;;;;;11.67;11.33;;;;;;;;5042399;28;46898;-59
2022/09/23 16:10:27;;;;;;;;;13.33;12.00;;;;;;;;5033776;28;45505;-59
2022/09/23 16:12:55;;;;;;;;;14.33;12.33;;;;;;;;5029857;28;46364;-58
2022/09/23 16:15:21;;;;;;;;;15.00;13.33;;;;;;;;5032995;28;45453;-60
2022/09/23 16:17:46;;;;;;;;;13.33;11.33;;;;;;;;5042382;28;45394;-60
2022/09/23 16:20:16;;;;;;;;;13.00;12.67;;;;;;;;5043267;28;45794;-60
2022/09/23 16:22:41;;;;;;;;;14.00;14.00;;;;;;;;5036877;28;46127;-59
2022/09/23 16:25:09;;;;;;;;;17.33;16.33;;;;;;;;5042485;28;45300;-60
2022/09/23 16:27:34;;;;;;;;;13.33;12.67;;;;;;;;5038997;28;45549;-59
2022/09/23 16:29:59;;;;;;;;;21.33;19.67;;;;;;;;5035828;28;45469;-59
2022/09/23 16:32:24;;;;;;;;;14.00;12.67;;;;;;;;5033178;28;46642;-59
2022/09/23 16:34:49;;;;;;;;;14.33;13.00;;;;;;;;5040458;28;45503;-59
2022/09/23 16:37:16;;;;;;;;;15.67;13.00;;;;;;;;5038279;28;45413;-60
2022/09/23 16:39:42;;;;;;;;;15.67;13.33;;;;;;;;5039092;28;45410;-60
2022/09/23 16:42:07;;;;;;;;;12.33;10.33;;;;;;;;5037974;28;46353;-60
2022/09/23 16:44:32;;;;;;;;;10.33;10.33;;;;;;;;5039933;28;45474;-59
2022/09/23 16:46:57;;;;;;;;;12.67;10.33;;;;;;;;5040130;28;45559;-59
2022/09/23 16:49:23;;;;;;;;;9.00;8.00;;;;;;;;5044443;28;45365;-58
2022/09/23 16:51:48;;;;;;;;;12.33;8.00;;;;;;;;5032252;28;46163;-59
2022/09/23 16:54:13;;;;;;;;;13.00;12.00;;;;;;;;5035429;28;45503;-59
2022/09/23 16:56:42;;;;;;;;;8.33;8.33;;;;;;;;5036101;28;45504;-58
2022/09/23 16:59:08;;;;;;;;;9.67;9.00;;;;;;;;5037553;28;45459;-59
2022/09/23 17:04:18;;;;;;;;;7.67;7.33;;;;;;;;5039170;28;45413;-59
2022/09/23 17:06:45;;;;;;;;;8.67;8.67;;;;;;;;5038865;28;45376;-59
2022/09/23 17:09:10;;;;;;;;;9.00;7.67;;;;;;;;5037167;28;45338;-59
2022/09/23 17:11:36;;;;;;;;;10.33;7.67;;;;;;;;5035951;28;48025;-59
2022/09/23 17:14:02;;;;;;;;;11.33;10.00;;;;;;;;5041246;28;45309;-60
2022/09/23 17:16:29;;;;;;;;;24.00;20.00;;;;;;;;5040165;28;45429;-61
2022/09/23 17:18:55;;;;;;;;;8.67;8.00;;;;;;;;5019780;28;45488;-61
2022/09/23 17:21:25;;;;;;;;;9.67;7.33;;;;;;;;5039179;28;45593;-62
2022/09/23 17:23:51;;;;;;;;;8.33;7.67;;;;;;;;5037276;28;45335;-60
2022/09/23 17:26:16;;;;;;;;;13.33;12.33;;;;;;;;5048589;28;45474;-59
2022/09/23 17:28:41;;;;;;;;;15.33;11.67;;;;;;;;5040051;28;45530;-59
2022/09/23 17:31:07;;;;;;;;;17.00;17.00;;;;;;;;5027848;28;45617;-60
2022/09/23 17:33:36;;;;;;;;;17.00;15.00;;;;;;;;5040731;28;45245;-60
2022/09/23 17:36:06;;;;;;;;;16.33;16.33;;;;;;;;5039096;28;45344;-60
2022/09/23 17:38:32;;;;;;;;;16.00;12.00;;;;;;;;5040107;28;45495;-60
2022/09/23 17:41:00;;;;;;;;;15.00;14.00;;;;;;;;5041057;28;45422;-59
2022/09/23 17:43:26;;;;;;;;;15.67;11.33;;;;;;;;5042689;28;45566;-59
2022/09/23 17:45:53;;;;;;;;;15.00;14.33;;;;;;;;5035705;28;45324;-59
2022/09/23 17:48:19;;;;;;;;;22.33;17.33;;;;;;;;5040888;28;45486;-59
2022/09/23 17:50:57;;;;;;;;;18.33;17.00;;;;;;;;5038938;28;45837;-61
2022/09/23 17:53:22;;;;;;;;;21.00;21.00;;;;;;;;5019847;28;45372;-60
2022/09/23 17:56:14;;;;;;;;;17.67;17.00;;;;;;;;5039491;28;45294;-59
2022/09/23 17:58:39;;;;;;;;;18.00;17.33;;;;;;;;5037029;28;45415;-59
2022/09/23 18:01:12;;;;;;;;;17.00;17.00;;;;;;;;5021788;28;46508;-60
2022/09/23 18:03:38;;;;;;;;;17.67;16.00;;;;;;;;5021437;28;45757;-60
2022/09/23 18:06:07;;;;;;;;;15.33;14.00;;;;;;;;5040230;28;45292;-64
2022/09/23 18:08:33;;;;;;;;;14.67;12.67;;;;;;;;5027615;28;45319;-64
2022/09/23 18:10:58;;;;;;;;;17.00;17.00;;;;;;;;5038457;28;46003;-58
2022/09/23 18:13:23;;;;;;;;;25.67;19.33;;;;;;;;5039259;28;45360;-59
2022/09/23 18:15:48;;;;;;;;;18.33;16.33;;;;;;;;5039525;28;45657;-60
2022/09/23 18:18:14;;;;;;;;;18.67;17.33;;;;;;;;5021558;28;45237;-60
2022/09/23 18:20:39;;;;;;;;;19.00;17.33;;;;;;;;5036708;28;45559;-59
2022/09/23 18:23:04;;;;;;;;;16.67;13.67;;;;;;;;5054357;28;45467;-59
2022/09/23 18:25:31;;;;;;;;;18.00;15.33;;;;;;;;5049919;28;45351;-59
2022/09/23 18:27:56;;;;;;;;;13.67;12.00;;;;;;;;5036326;28;45288;-59
2022/09/23 18:30:21;;;;;;;;;16.00;15.00;;;;;;;;5037266;28;46046;-59
2022/09/23 18:32:47;;;;;;;;;19.00;16.67;;;;;;;;5038564;28;45377;-59
2022/09/23 18:35:12;;;;;;;;;19.67;18.67;;;;;;;;5040674;28;45803;-60
2022/09/23 18:37:37;;;;;;;;;16.00;16.00;;;;;;;;5042364;28;45335;-60
2022/09/23 18:40:04;;;;;;;;;19.33;16.33;;;;;;;;5047360;28;45483;-59
2022/09/23 18:42:29;;;;;;;;;18.67;15.00;;;;;;;;5037980;28;45610;-61
2022/09/23 18:44:55;;;;;;;;;19.00;17.33;;;;;;;;5031147;28;45635;-60
2022/09/23 18:52:48;;;;;;;;;20.33;20.00;;;;;;;;5029145;28;45714;-59
2022/09/23 18:55:14;;;;;;;;;16.67;16.67;;;;;;;;5042074;28;45515;-60
2022/09/23 18:57:40;;;;;;;;;21.67;18.33;;;;;;;;5043750;28;45471;-60
2022/09/23 19:00:05;;;;;;;;;19.00;17.00;;;;;;;;5039982;28;46978;-60
2022/09/23 19:02:32;;;;;;;;;18.67;18.33;;;;;;;;5037751;28;45465;-60
2022/09/23 19:04:57;;;;;;;;;15.33;14.00;;;;;;;;5038904;28;45369;-59
2022/09/23 19:07:22;;;;;;;;;20.00;16.00;;;;;;;;5043491;28;45290;-59
2022/09/23 19:09:47;;;;;;;;;17.33;17.33;;;;;;;;5018550;28;47217;-60
2022/09/23 19:12:12;;;;;;;;;23.33;20.33;;;;;;;;5039507;28;45428;-59
2022/09/23 19:14:37;;;;;;;;;21.67;20.00;;;;;;;;5039178;28;45433;-59
2022/09/23 19:17:03;;;;;;;;;20.67;15.67;;;;;;;;5037478;28;45339;-61
2022/09/23 19:19:29;;;;;;;;;22.00;18.00;;;;;;;;5035871;28;46054;-59
2022/09/23 19:21:54;;;;;;;;;16.33;15.00;;;;;;;;5028740;28;45442;-59
2022/09/23 19:24:19;;;;;;;;;19.00;18.33;;;;;;;;5034023;28;45503;-58